Time;durP1;ratioP1;P1;durP2;ratioP2;P2;SDS_P1;SDS_P2;PMS_P1;PMS_P2;Temp;Humidity;BMP_temperature;BMP_pressure;BME280_temperature;BME280_humidity;BME280_pressure;Samples;Min_cycle;Max_cycle;Signal;HPM_P1;HPM_P2
2023/11/24 00:02:08;;;;;;;10.45;6.75;;;;;;;10.86;68.19;97086.50;4938903;28;20609;-82
2023/11/24 00:04:34;;;;;;;10.55;6.53;;;;;;;10.72;67.95;97069.75;4923890;28;20307;-82
2023/11/24 00:07:00;;;;;;;11.63;6.85;;;;;;;10.82;68.33;97081.03;4912472;28;20274;-83
2023/11/24 00:09:29;;;;;;;10.80;7.07;;;;;;;10.78;68.24;97073.94;4928550;28;20216;-82
2023/11/24 00:11:54;;;;;;;12.57;7.55;;;;;;;10.83;68.52;97079.19;4924980;28;20713;-82
2023/11/24 00:14:20;;;;;;;12.90;7.57;;;;;;;11.02;67.39;97062.16;4939402;28;20282;-82
2023/11/24 00:16:47;;;;;;;12.00;6.75;;;;;;;11.13;67.50;97067.44;4897682;28;20362;-81
2023/11/24 00:19:15;;;;;;;11.60;6.95;;;;;;;10.94;68.18;97056.63;4927930;28;20192;-81
2023/11/24 00:21:41;;;;;;;13.48;7.50;;;;;;;10.95;68.08;97045.97;4933114;28;20366;-81
2023/11/24 00:24:07;;;;;;;12.18;7.60;;;;;;;10.99;68.22;97041.81;4938863;28;20166;-81
2023/11/24 00:26:32;;;;;;;11.25;7.50;;;;;;;11.11;67.75;97030.44;4939433;28;20196;-82
2023/11/24 00:28:58;;;;;;;11.93;7.03;;;;;;;11.08;67.85;97015.31;4933946;28;20181;-81
2023/11/24 00:31:27;;;;;;;10.80;7.55;;;;;;;11.10;67.68;97008.03;4943278;28;20264;-82
2023/11/24 00:33:53;;;;;;;12.23;7.75;;;;;;;11.17;68.24;97013.78;4904803;28;20224;-81
2023/11/24 00:36:18;;;;;;;12.30;6.82;;;;;;;11.08;68.79;97005.66;4945034;28;20596;-82
2023/11/24 00:38:43;;;;;;;9.70;6.28;;;;;;;11.25;68.46;96985.44;4898221;28;20170;-81
2023/11/24 00:41:09;;;;;;;12.18;6.80;;;;;;;11.30;68.05;96984.69;4943083;28;20208;-82
2023/11/24 00:43:36;;;;;;;13.02;7.57;;;;;;;11.17;68.76;96977.31;4926363;28;20193;-82
2023/11/24 00:46:02;;;;;;;10.68;7.07;;;;;;;11.16;68.84;96983.56;4938061;28;20591;-81
2023/11/24 00:48:28;;;;;;;10.60;7.07;;;;;;;11.19;69.09;97001.28;4929791;28;20215;-82
2023/11/24 00:50:53;;;;;;;10.48;6.90;;;;;;;11.37;67.99;97003.47;4941851;28;20200;-81
2023/11/24 00:53:19;;;;;;;10.07;5.90;;;;;;;11.34;68.52;97003.97;4931817;28;20199;-82
2023/11/24 00:55:44;;;;;;;10.45;6.55;;;;;;;11.41;67.64;96995.94;4929889;28;20192;-81
2023/11/24 00:58:10;;;;;;;8.05;5.25;;;;;;;11.41;67.99;96996.72;4906918;28;20248;-82
2023/11/24 01:00:38;;;;;;;8.85;5.47;;;;;;;11.53;67.52;97008.75;4944150;28;20369;-82
2023/11/24 01:03:05;;;;;;;8.00;5.63;;;;;;;11.65;67.28;97009.31;4927881;28;20215;-82
2023/11/24 01:05:30;;;;;;;8.25;5.45;;;;;;;11.55;67.08;96984.03;4946252;28;20215;-83
2023/11/24 01:07:55;;;;;;;7.10;4.93;;;;;;;11.40;67.52;96986.56;4910280;28;20284;-82
2023/11/24 01:10:21;;;;;;;8.27;5.05;;;;;;;11.58;67.12;96985.31;4939350;28;20200;-82
2023/11/24 01:12:47;;;;;;;6.65;4.72;;;;;;;11.60;67.62;96975.41;4926885;28;20279;-83
2023/11/24 01:15:14;;;;;;;7.38;4.95;;;;;;;11.69;67.32;96980.94;4927513;28;20208;-83
2023/11/24 01:17:44;;;;;;;7.65;5.03;;;;;;;11.71;67.16;96987.47;4938570;28;20196;-82
2023/11/24 01:20:10;;;;;;;6.53;4.70;;;;;;;11.75;67.26;96988.50;4914374;28;20251;-82
2023/11/24 01:22:37;;;;;;;7.68;4.63;;;;;;;11.76;67.31;96969.22;4941177;28;20289;-82
2023/11/24 01:25:03;;;;;;;7.25;4.47;;;;;;;11.76;67.25;96982.25;4918477;28;20514;-82
2023/11/24 01:27:29;;;;;;;6.90;4.53;;;;;;;11.74;68.07;96976.53;4919384;28;20248;-82
2023/11/24 01:29:54;;;;;;;6.40;4.88;;;;;;;11.80;67.70;96990.34;4942114;28;20288;-82
2023/11/24 01:32:19;;;;;;;5.78;4.10;;;;;;;11.70;68.53;96975.44;4922005;28;20191;-83
2023/11/24 01:34:45;;;;;;;5.80;4.18;;;;;;;11.85;68.32;96968.72;4944694;28;20253;-82
2023/11/24 01:37:10;;;;;;;5.07;3.88;;;;;;;12.03;68.17;96983.13;4919784;28;20277;-83
2023/11/24 01:39:37;;;;;;;5.20;4.03;;;;;;;12.11;68.03;96993.84;4944102;28;20652;-82
2023/11/24 01:42:04;;;;;;;5.07;3.53;;;;;;;11.96;68.47;96989.41;4937460;28;20239;-82
2023/11/24 01:44:30;;;;;;;4.95;3.47;;;;;;;12.12;68.66;96979.75;4935548;28;20381;-84
2023/11/24 01:46:55;;;;;;;5.13;3.20;;;;;;;12.26;68.71;96971.44;4925689;28;20234;-83
2023/11/24 01:49:21;;;;;;;4.50;3.47;;;;;;;12.16;69.44;96966.97;4925251;28;20461;-82
2023/11/24 01:51:48;;;;;;;3.33;2.70;;;;;;;12.16;69.86;96954.69;4912163;28;20232;-84
2023/11/24 01:54:13;;;;;;;4.10;3.10;;;;;;;12.41;69.07;96953.16;4926670;28;20162;-83
2023/11/24 01:56:39;;;;;;;4.47;3.10;;;;;;;12.41;68.00;96947.94;4922969;28;20254;-82
2023/11/24 01:59:05;;;;;;;4.45;2.97;;;;;;;12.29;68.95;96952.66;4940213;28;20334;-82
2023/11/24 02:01:31;;;;;;;2.95;2.50;;;;;;;12.43;68.75;96940.63;4923191;28;20790;-82
2023/11/24 02:03:57;;;;;;;3.45;2.60;;;;;;;12.49;66.83;96936.97;4899203;28;20195;-84
2023/11/24 02:06:23;;;;;;;3.10;2.58;;;;;;;12.33;68.92;96915.28;4940141;28;20191;-84
2023/11/24 02:08:49;;;;;;;5.60;2.53;;;;;;;12.41;68.88;96914.00;4944427;28;20219;-83
2023/11/24 02:11:15;;;;;;;2.13;1.75;;;;;;;12.46;68.90;96919.22;4926137;28;20191;-83
2023/11/24 02:13:40;;;;;;;2.72;2.10;;;;;;;12.57;67.63;96906.16;4927841;28;20592;-83
2023/11/24 02:16:06;;;;;;;3.15;2.42;;;;;;;12.62;68.16;96900.94;4942097;28;20176;-82
2023/11/24 02:18:31;;;;;;;2.85;2.25;;;;;;;12.60;67.38;96901.19;4931515;28;20182;-85
2023/11/24 02:20:57;;;;;;;2.95;2.58;;;;;;;12.62;68.01;96893.09;4937671;28;20196;-82
2023/11/24 02:23:22;;;;;;;2.80;2.50;;;;;;;12.67;67.50;96887.84;4918223;28;20195;-83
2023/11/24 02:25:47;;;;;;;3.85;2.42;;;;;;;12.58;67.34;96894.66;4911264;28;20161;-81
2023/11/24 02:28:13;;;;;;;2.88;2.35;;;;;;;12.52;68.37;96896.50;4922261;28;20328;-83
2023/11/24 02:30:38;;;;;;;2.53;2.15;;;;;;;12.62;68.09;96912.16;4919404;28;20259;-83
2023/11/24 02:33:04;;;;;;;3.05;2.20;;;;;;;12.71;67.82;96909.78;4942812;28;20690;-82
2023/11/24 02:35:29;;;;;;;3.13;1.65;;;;;;;12.72;68.56;96908.75;4923951;28;20621;-82
2023/11/24 02:37:56;;;;;;;2.55;1.80;;;;;;;12.80;67.83;96904.78;4941794;28;20613;-84
2023/11/24 02:40:21;;;;;;;2.85;1.58;;;;;;;12.76;67.71;96909.00;4938705;28;20315;-82
2023/11/24 02:42:47;;;;;;;1.80;1.60;;;;;;;12.81;68.30;96899.31;4900060;28;20174;-83
2023/11/24 02:45:12;;;;;;;1.75;1.30;;;;;;;12.71;67.96;96891.50;4935649;28;20290;-82
2023/11/24 02:47:38;;;;;;;1.50;1.33;;;;;;;12.64;68.67;96888.38;4937504;28;20272;-81
2023/11/24 02:50:04;;;;;;;1.83;1.58;;;;;;;12.71;68.89;96881.03;4918263;28;20189;-82
2023/11/24 02:52:29;;;;;;;1.77;1.35;;;;;;;12.87;67.59;96877.34;4937854;28;20774;-82
2023/11/24 02:54:57;;;;;;;1.80;1.67;;;;;;;12.91;67.95;96883.59;4915913;28;20327;-81
2023/11/24 02:57:23;;;;;;;1.65;1.50;;;;;;;12.72;67.37;96859.88;4930587;28;20438;-83
2023/11/24 02:59:48;;;;;;;1.75;1.42;;;;;;;12.81;67.31;96857.50;4909069;28;20240;-82
2023/11/24 03:02:14;;;;;;;2.20;1.60;;;;;;;12.84;67.65;96862.22;4908418;28;20237;-82
2023/11/24 03:04:39;;;;;;;1.90;1.70;;;;;;;12.79;67.20;96862.22;4905287;28;20199;-83
2023/11/24 03:07:05;;;;;;;2.20;1.63;;;;;;;12.86;67.94;96859.34;4926805;28;20261;-82
2023/11/24 03:09:31;;;;;;;2.22;1.60;;;;;;;12.98;67.31;96859.81;4924058;28;20200;-83
2023/11/24 03:11:57;;;;;;;2.17;1.98;;;;;;;12.83;68.07;96852.78;4927853;28;20179;-83
2023/11/24 03:14:23;;;;;;;1.83;1.63;;;;;;;12.82;66.93;96851.25;4913148;28;20215;-82
2023/11/24 03:16:49;;;;;;;2.10;1.90;;;;;;;12.76;67.50;96851.53;4943211;28;20183;-83
2023/11/24 03:19:16;;;;;;;3.25;2.03;;;;;;;12.79;68.27;96851.00;4929901;28;20177;-82
2023/11/24 03:21:45;;;;;;;1.92;1.80;;;;;;;12.95;67.20;96847.25;4906448;28;20716;-82
2023/11/24 03:24:10;;;;;;;2.20;2.00;;;;;;;12.85;66.67;96840.25;4935872;28;20283;-83
2023/11/24 03:26:36;;;;;;;2.47;2.10;;;;;;;12.94;67.69;96843.09;4910310;28;20192;-81
2023/11/24 03:29:02;;;;;;;2.15;1.80;;;;;;;13.00;67.02;96841.25;4934266;28;20629;-82
2023/11/24 03:31:28;;;;;;;2.13;1.92;;;;;;;12.90;67.58;96829.78;4931397;28;20326;-81
2023/11/24 03:33:53;;;;;;;1.98;1.77;;;;;;;12.97;67.33;96842.56;4924692;28;20356;-81
2023/11/24 03:36:19;;;;;;;3.05;1.90;;;;;;;12.94;66.36;96837.88;4916577;28;21017;-81
2023/11/24 03:38:44;;;;;;;2.90;2.22;;;;;;;12.95;66.80;96825.59;4909684;28;20083;-82
2023/11/24 03:41:10;;;;;;;2.15;1.90;;;;;;;12.93;66.98;96820.63;4930712;28;20550;-81
2023/11/24 03:43:35;;;;;;;2.20;2.00;;;;;;;12.89;67.89;96809.16;4942502;28;20200;-82
2023/11/24 03:46:00;;;;;;;2.65;2.40;;;;;;;12.86;67.78;96813.06;4921446;28;20215;-82
2023/11/24 03:48:30;;;;;;;2.13;1.85;;;;;;;12.90;67.46;96808.09;4923613;28;20618;-80
2023/11/24 03:50:55;;;;;;;2.97;1.90;;;;;;;12.80;67.24;96801.09;4904051;28;20280;-80
2023/11/24 03:53:21;;;;;;;3.03;1.90;;;;;;;12.98;67.35;96810.16;4917892;28;20205;-82
2023/11/24 03:55:47;;;;;;;2.28;2.03;;;;;;;12.96;66.94;96807.03;4913796;28;20196;-83
2023/11/24 03:58:13;;;;;;;2.40;2.20;;;;;;;12.95;67.07;96815.91;4925771;28;20364;-82
2023/11/24 04:00:39;;;;;;;2.40;2.00;;;;;;;13.04;67.08;96823.97;4916357;28;20214;-82
2023/11/24 04:03:04;;;;;;;2.90;2.28;;;;;;;12.92;67.13;96829.53;4938945;28;20155;-82
2023/11/24 04:05:30;;;;;;;2.10;1.90;;;;;;;13.01;67.21;96827.16;4897897;28;20208;-82
2023/11/24 04:07:55;;;;;;;2.70;2.00;;;;;;;12.87;67.68;96826.94;4897452;28;20248;-80
2023/11/24 04:10:20;;;;;;;3.15;2.15;;;;;;;13.00;66.66;96856.94;4910480;28;20196;-84
2023/11/24 04:12:46;;;;;;;5.15;2.60;;;;;;;12.98;66.59;96849.34;4941918;28;20208;-86
2023/11/24 04:15:13;;;;;;;2.42;1.70;;;;;;;12.98;67.02;96841.50;4935135;28;20191;-84
2023/11/24 04:17:38;;;;;;;4.35;1.10;;;;;;;12.72;66.70;96856.50;4911358;28;20632;-84
2023/11/24 04:20:09;;;;;;;2.85;2.15;;;;;;;12.46;68.16;96851.34;4899232;28;20208;-84
2023/11/24 04:22:35;;;;;;;1.90;1.42;;;;;;;12.31;67.60;96849.53;4907126;28;20683;-84
2023/11/24 04:25:00;;;;;;;3.13;1.30;;;;;;;12.18;67.49;96839.59;4920354;28;20273;-84
2023/11/24 04:27:26;;;;;;;1.65;1.25;;;;;;;12.29;67.03;96856.06;4927938;28;20211;-83
2023/11/24 04:29:51;;;;;;;4.40;1.20;;;;;;;12.38;66.20;96862.31;4939495;28;20185;-84
2023/11/24 04:32:17;;;;;;;4.28;1.55;;;;;;;12.09;66.33;96847.19;4904042;28;20293;-84
2023/11/24 04:34:43;;;;;;;3.55;1.63;;;;;;;12.32;65.10;96850.28;4924193;28;20212;-82
2023/11/24 04:37:08;;;;;;;1.65;1.25;;;;;;;12.10;65.94;96829.72;4916971;28;20188;-81
2023/11/24 04:39:33;;;;;;;2.75;1.25;;;;;;;12.30;64.71;96829.69;4919914;28;20253;-84
2023/11/24 04:41:59;;;;;;;2.08;1.33;;;;;;;12.35;64.55;96815.84;4907439;28;20196;-83
2023/11/24 04:44:24;;;;;;;1.45;0.98;;;;;;;12.38;64.51;96811.94;4929808;28;20261;-83
2023/11/24 04:46:50;;;;;;;4.72;1.50;;;;;;;12.16;64.22;96800.72;4932013;28;20207;-84
2023/11/24 04:49:15;;;;;;;2.97;1.02;;;;;;;12.21;64.53;96812.97;4925853;28;20170;-84
2023/11/24 04:51:40;;;;;;;4.25;1.52;;;;;;;12.30;64.51;96810.63;4926508;28;20270;-82
2023/11/24 04:54:06;;;;;;;5.25;1.50;;;;;;;12.31;63.66;96805.13;4940733;28;20183;-83
2023/11/24 04:56:31;;;;;;;2.70;1.20;;;;;;;12.22;64.18;96785.84;4934811;28;20265;-84
2023/11/24 04:58:57;;;;;;;4.88;1.55;;;;;;;12.24;64.20;96803.84;4926551;28;20281;-82
2023/11/24 05:01:22;;;;;;;4.40;1.30;;;;;;;12.17;64.26;96797.06;4906877;28;20595;-83
2023/11/24 05:03:49;;;;;;;3.65;1.50;;;;;;;12.07;64.83;96791.88;4927980;28;20215;-83
2023/11/24 05:06:18;;;;;;;3.90;1.08;;;;;;;12.03;65.20;96780.41;4942324;28;20259;-83
2023/11/24 05:08:44;;;;;;;3.20;1.00;;;;;;;11.97;65.29;96786.66;4945203;28;20165;-83
2023/11/24 05:11:09;;;;;;;2.13;1.10;;;;;;;11.93;65.30;96790.84;4929394;28;20573;-82
2023/11/24 05:13:35;;;;;;;2.53;1.10;;;;;;;11.91;65.22;96800.75;4924451;28;20196;-82
2023/11/24 05:16:00;;;;;;;2.65;1.27;;;;;;;12.01;65.71;96805.19;4929387;28;20188;-82
2023/11/24 05:18:26;;;;;;;3.63;1.30;;;;;;;11.97;65.73;96786.66;4927371;28;20689;-82
2023/11/24 05:20:52;;;;;;;3.17;1.45;;;;;;;11.98;65.80;96783.00;4921663;28;20217;-82
2023/11/24 05:23:17;;;;;;;5.03;1.40;;;;;;;12.04;65.53;96776.72;4931946;28;20596;-82
2023/11/24 05:25:43;;;;;;;4.22;1.55;;;;;;;12.02;65.23;96778.06;4920105;28;20253;-82
2023/11/24 05:28:09;;;;;;;3.50;1.15;;;;;;;12.02;64.72;96784.03;4919056;28;20088;-82
2023/11/24 05:30:34;;;;;;;3.42;1.38;;;;;;;11.97;64.51;96777.00;4922391;28;20216;-81
2023/11/24 05:33:01;;;;;;;5.38;1.70;;;;;;;11.95;63.71;96783.53;4916574;28;20189;-81
2023/11/24 05:35:27;;;;;;;3.20;1.70;;;;;;;11.99;63.92;96792.38;4926298;28;20165;-81
2023/11/24 05:37:52;;;;;;;3.15;1.40;;;;;;;11.94;63.85;96792.41;4925831;28;20184;-81
2023/11/24 05:40:18;;;;;;;4.32;1.80;;;;;;;11.87;63.12;96799.69;4941482;28;20305;-82
2023/11/24 05:42:43;;;;;;;5.55;1.90;;;;;;;11.81;62.63;96784.03;4938598;28;20481;-81
2023/11/24 05:45:09;;;;;;;5.28;1.63;;;;;;;11.86;63.08;96777.22;4924958;28;20250;-82
2023/11/24 05:47:36;;;;;;;4.97;1.80;;;;;;;11.72;63.20;96769.97;4938848;28;20255;-81
2023/11/24 05:50:05;;;;;;;5.68;2.10;;;;;;;11.64;62.67;96769.69;4931001;28;20256;-81
2023/11/24 05:52:31;;;;;;;2.70;1.35;;;;;;;11.56;62.91;96760.56;4939292;28;20187;-81
2023/11/24 05:54:58;;;;;;;5.28;1.45;;;;;;;11.47;61.74;96749.09;4929171;28;20205;-82
2023/11/24 05:57:24;;;;;;;6.15;1.50;;;;;;;11.51;61.48;96750.91;4927273;28;20679;-80
2023/11/24 05:59:49;;;;;;;5.22;1.27;;;;;;;11.54;62.01;96752.22;4928766;28;20102;-81
2023/11/24 06:02:15;;;;;;;4.53;1.52;;;;;;;11.39;61.69;96748.53;4917101;28;20211;-83
2023/11/24 06:04:40;;;;;;;3.90;1.30;;;;;;;11.41;62.81;96751.69;4900061;28;20199;-82
2023/11/24 06:07:05;;;;;;;5.78;2.00;;;;;;;11.31;62.16;96754.28;4917454;28;20131;-82
2023/11/24 06:09:32;;;;;;;6.47;1.60;;;;;;;11.21;63.07;96751.66;4940205;28;20421;-82
2023/11/24 06:11:58;;;;;;;4.22;1.95;;;;;;;11.08;62.10;96755.53;4927934;28;20165;-82
2023/11/24 06:14:23;;;;;;;6.10;2.00;;;;;;;11.11;63.38;96756.88;4913755;28;20203;-81
2023/11/24 06:16:49;;;;;;;5.20;1.65;;;;;;;10.92;63.40;96752.13;4939845;28;20211;-82
2023/11/24 06:19:14;;;;;;;5.60;1.58;;;;;;;11.06;61.40;96747.97;4918452;28;20357;-82
2023/11/24 06:21:40;;;;;;;5.03;1.10;;;;;;;10.93;62.07;96763.31;4937975;28;20199;-81
2023/11/24 06:24:05;;;;;;;4.10;1.98;;;;;;;10.84;61.43;96756.00;4912298;28;20694;-81
2023/11/24 06:26:33;;;;;;;5.38;1.13;;;;;;;10.82;62.50;96763.28;4928634;28;20072;-81
2023/11/24 06:28:58;;;;;;;5.38;1.30;;;;;;;10.73;61.86;96758.81;4919547;28;20560;-82
2023/11/24 06:31:24;;;;;;;5.32;1.75;;;;;;;10.84;62.25;96769.00;4895563;28;20204;-82
2023/11/24 06:33:49;;;;;;;3.40;1.58;;;;;;;10.66;62.63;96775.47;4919486;28;20759;-82
2023/11/24 06:36:14;;;;;;;6.95;1.80;;;;;;;10.56;62.14;96765.00;4920825;28;20713;-81
2023/11/24 06:38:40;;;;;;;8.38;1.67;;;;;;;10.43;62.71;96776.66;4916826;28;20283;-82
2023/11/24 06:41:06;;;;;;;7.30;2.15;;;;;;;10.46;63.51;96770.94;4926487;28;20576;-82
2023/11/24 06:43:32;;;;;;;3.30;1.10;;;;;;;10.53;62.80;96780.34;4931375;28;20172;-81
2023/11/24 06:45:57;;;;;;;5.18;1.38;;;;;;;10.56;63.20;96785.84;4934171;28;20568;-81
2023/11/24 06:48:23;;;;;;;3.70;1.40;;;;;;;10.54;62.77;96790.53;4920085;28;20196;-82
2023/11/24 06:50:48;;;;;;;3.53;1.67;;;;;;;10.48;63.48;96784.50;4940583;28;20220;-81
2023/11/24 06:53:14;;;;;;;10.95;2.28;;;;;;;10.51;63.50;96793.63;4922888;28;20311;-82
2023/11/24 06:55:39;;;;;;;8.80;1.50;;;;;;;10.45;63.83;96784.22;4920419;28;20655;-81
2023/11/24 06:58:06;;;;;;;4.85;1.60;;;;;;;10.40;63.94;96777.19;4936627;28;20207;-83
2023/11/24 07:00:32;;;;;;;4.18;1.40;;;;;;;10.53;64.05;96790.78;4905635;28;20196;-82
2023/11/24 07:02:57;;;;;;;4.65;1.52;;;;;;;10.39;63.20;96780.81;4934637;28;20229;-82
2023/11/24 07:05:23;;;;;;;5.70;1.27;;;;;;;10.65;63.48;96788.75;4921033;28;20176;-82
2023/11/24 07:07:48;;;;;;;6.15;1.70;;;;;;;10.76;63.53;96792.16;4914774;28;20127;-82
2023/11/24 07:10:14;;;;;;;6.28;1.60;;;;;;;10.77;63.61;96786.69;4910619;28;20748;-82
2023/11/24 07:12:42;;;;;;;8.80;2.38;;;;;;;10.80;63.86;96793.25;4942067;28;20212;-83
2023/11/24 07:15:10;;;;;;;7.35;2.22;;;;;;;10.83;63.21;96774.47;4918450;28;20277;-82
2023/11/24 07:17:35;;;;;;;5.30;1.80;;;;;;;10.85;63.32;96756.78;4916841;28;20293;-82
2023/11/24 07:20:01;;;;;;;9.50;1.60;;;;;;;10.86;63.17;96766.97;4917963;28;20565;-82
2023/11/24 07:22:27;;;;;;;7.18;1.85;;;;;;;10.80;63.76;96764.59;4896313;28;20271;-82
2023/11/24 07:24:52;;;;;;;5.97;1.55;;;;;;;10.78;63.75;96764.84;4936930;28;20212;-82
2023/11/24 07:27:18;;;;;;;10.30;2.00;;;;;;;10.79;63.69;96774.22;4917743;28;20565;-82
2023/11/24 07:29:43;;;;;;;6.63;1.70;;;;;;;10.76;63.62;96771.34;4902196;28;20332;-82
2023/11/24 07:32:11;;;;;;;6.40;1.80;;;;;;;10.81;63.45;96771.34;4934285;28;20240;-82
2023/11/24 07:34:36;;;;;;;6.90;1.73;;;;;;;10.85;63.12;96762.00;4927545;28;20147;-82
2023/11/24 07:37:02;;;;;;;5.65;2.05;;;;;;;10.82;63.17;96768.50;4930274;28;20212;-81
2023/11/24 07:39:29;;;;;;;6.63;1.98;;;;;;;10.80;63.10;96767.19;4936895;28;20227;-82
2023/11/24 07:41:55;;;;;;;8.45;2.05;;;;;;;10.84;62.83;96765.63;4931539;28;20566;-82
2023/11/24 07:44:20;;;;;;;7.72;2.10;;;;;;;10.92;63.38;96767.75;4922551;28;20616;-82
2023/11/24 07:46:46;;;;;;;12.73;2.15;;;;;;;10.92;62.54;96772.19;4923709;28;20203;-82
2023/11/24 07:49:11;;;;;;;9.80;1.90;;;;;;;10.88;62.52;96771.88;4938178;28;20165;-82
2023/11/24 07:51:37;;;;;;;8.98;2.00;;;;;;;10.93;63.18;96769.31;4938218;28;20204;-82
2023/11/24 07:54:03;;;;;;;7.25;1.95;;;;;;;10.90;62.50;96754.22;4921740;28;20703;-82
2023/11/24 07:56:31;;;;;;;7.43;1.85;;;;;;;11.01;62.42;96770.63;4915021;28;20200;-82
2023/11/24 07:58:57;;;;;;;6.43;1.88;;;;;;;10.86;61.53;96763.56;4937825;28;20025;-81
2023/11/24 08:01:23;;;;;;;9.50;2.08;;;;;;;10.60;62.76;96757.47;4956293;28;20034;-81
2023/11/24 08:03:48;;;;;;;11.48;1.88;;;;;;;10.61;61.99;96765.03;4940512;28;20037;-81
2023/11/24 08:06:15;;;;;;;5.40;1.50;;;;;;;10.79;62.46;96755.97;4946215;28;20053;-81
2023/11/24 08:08:40;;;;;;;6.10;2.85;;;;;;;10.84;62.02;96761.19;4936622;28;20164;-82
2023/11/24 08:11:06;;;;;;;8.70;1.77;;;;;;;10.84;61.64;96745.56;4941365;28;20139;-82
2023/11/24 08:13:32;;;;;;;7.30;1.80;;;;;;;10.92;62.01;96746.91;4942997;28;20181;-82
2023/11/24 08:15:58;;;;;;;6.80;1.52;;;;;;;10.84;62.12;96729.94;4941200;28;20377;-82
2023/11/24 08:18:23;;;;;;;5.75;2.03;;;;;;;10.83;62.42;96751.03;4936339;28;20297;-82
2023/11/24 08:20:49;;;;;;;7.97;2.13;;;;;;;10.78;63.02;96740.59;4925410;28;20199;-81
2023/11/24 08:23:15;;;;;;;6.82;2.05;;;;;;;10.70;62.57;96726.28;4945701;28;20817;-81
2023/11/24 08:25:41;;;;;;;10.02;2.13;;;;;;;10.76;62.46;96727.88;4928549;28;20388;-85
2023/11/24 08:28:07;;;;;;;6.85;1.98;;;;;;;10.76;61.71;96721.84;4927504;28;20208;-81
2023/11/24 08:30:32;;;;;;;6.72;1.77;;;;;;;10.72;62.52;96715.59;4927811;28;20333;-81
2023/11/24 08:32:57;;;;;;;5.60;1.50;;;;;;;10.68;62.07;96723.91;4928802;28;20375;-81
2023/11/24 08:35:25;;;;;;;6.30;2.13;;;;;;;10.73;61.86;96709.34;4948180;28;20632;-81
2023/11/24 08:37:50;;;;;;;5.88;1.67;;;;;;;10.78;62.18;96706.75;4932683;28;20189;-83
2023/11/24 08:40:16;;;;;;;7.70;2.05;;;;;;;10.89;61.80;96715.41;4931142;28;20713;-81
2023/11/24 08:42:43;;;;;;;5.40;1.60;;;;;;;10.95;61.01;96712.53;4906976;28;20530;-81
2023/11/24 08:45:09;;;;;;;6.35;1.73;;;;;;;10.91;61.27;96708.09;4939012;28;20181;-80
2023/11/24 08:47:34;;;;;;;5.45;1.30;;;;;;;10.47;61.20;96704.09;4948642;28;20204;-80
2023/11/24 08:50:00;;;;;;;8.93;1.73;;;;;;;10.80;61.58;96694.28;4947214;28;20219;-81
2023/11/24 08:52:26;;;;;;;7.57;1.63;;;;;;;10.85;61.75;96696.91;4947016;28;20359;-82
2023/11/24 08:54:51;;;;;;;4.85;1.27;;;;;;;10.72;60.76;96689.56;4932856;28;20208;-80
2023/11/24 08:57:17;;;;;;;4.45;1.55;;;;;;;10.77;61.13;96685.16;4915486;28;20154;-82
2023/11/24 08:59:43;;;;;;;4.63;1.17;;;;;;;10.72;60.03;96684.34;4926152;28;20791;-81
2023/11/24 09:02:08;;;;;;;4.80;1.42;;;;;;;10.74;60.33;96672.63;4928771;28;20199;-82
2023/11/24 09:04:34;;;;;;;7.30;1.70;;;;;;;10.77;60.70;96689.56;4946020;28;20203;-80
2023/11/24 09:07:00;;;;;;;5.75;1.88;;;;;;;10.61;61.07;96673.91;4926622;28;20299;-82
2023/11/24 09:09:27;;;;;;;4.07;1.95;;;;;;;10.74;60.19;96667.44;4927747;28;20197;-82
2023/11/24 09:11:52;;;;;;;4.65;1.17;;;;;;;10.81;60.15;96673.19;4943435;28;20690;-81
2023/11/24 09:14:18;;;;;;;3.38;1.38;;;;;;;10.89;59.65;96669.28;4927451;28;20268;-82
2023/11/24 09:16:43;;;;;;;10.80;1.48;;;;;;;10.83;60.66;96663.28;4947448;28;20223;-82
2023/11/24 09:19:09;;;;;;;5.22;1.30;;;;;;;11.06;60.54;96675.03;4923772;28;20581;-82
2023/11/24 09:21:34;;;;;;;5.57;1.63;;;;;;;10.97;60.40;96676.59;4927434;28;20295;-83
2023/11/24 09:24:01;;;;;;;7.32;1.63;;;;;;;10.93;60.54;96670.31;4925135;28;20185;-81
2023/11/24 09:26:28;;;;;;;3.80;1.33;;;;;;;11.11;60.55;96660.47;4918796;28;20205;-81
2023/11/24 09:28:53;;;;;;;6.72;1.52;;;;;;;11.16;59.95;96658.63;4924920;28;20254;-82
2023/11/24 09:31:18;;;;;;;7.72;2.05;;;;;;;11.10;60.18;96632.84;4930317;28;20642;-82
2023/11/24 09:33:44;;;;;;;8.88;1.58;;;;;;;10.93;59.20;96652.09;4929490;28;20622;-81
2023/11/24 09:36:10;;;;;;;5.55;1.58;;;;;;;11.22;60.13;96643.78;4932515;28;20621;-82
2023/11/24 09:38:35;;;;;;;5.13;1.45;;;;;;;11.10;59.48;96651.06;4929988;28;20257;-81
2023/11/24 09:41:08;;;;;;;6.03;1.50;;;;;;;11.27;59.24;96656.78;4943806;28;20643;-81
2023/11/24 09:43:40;;;;;;;3.45;1.15;;;;;;;11.36;58.98;96651.84;4927215;28;20139;-81
2023/11/24 09:46:07;;;;;;;7.82;2.30;;;;;;;11.29;59.56;96640.91;4924952;28;20628;-82
2023/11/24 09:48:33;;;;;;;5.07;2.30;;;;;;;11.39;58.81;96641.66;4941351;28;20657;-81
2023/11/24 09:51:00;;;;;;;4.55;2.35;;;;;;;11.34;58.46;96641.69;4940556;28;20215;-81
2023/11/24 09:53:35;;;;;;;5.05;1.85;;;;;;;11.44;58.98;96638.28;4919892;28;20629;-82
2023/11/24 09:56:04;;;;;;;5.68;1.50;;;;;;;11.52;59.44;96639.59;4922259;28;20165;-81
2023/11/24 09:58:33;;;;;;;8.07;1.50;;;;;;;11.36;58.67;96631.78;4939923;28;20254;-81
2023/11/24 10:01:05;;;;;;;5.80;1.98;;;;;;;11.15;58.78;96620.56;4942637;28;20207;-82
2023/11/24 10:03:35;;;;;;;5.75;1.98;;;;;;;10.96;58.98;96622.94;4940544;28;20684;-81
2023/11/24 10:06:01;;;;;;;6.88;1.30;;;;;;;11.13;59.04;96625.28;4943705;28;20221;-81
2023/11/24 10:08:26;;;;;;;9.85;1.73;;;;;;;11.20;58.76;96623.19;4904641;28;20374;-81
2023/11/24 10:10:52;;;;;;;4.72;1.92;;;;;;;11.00;58.80;96618.78;4912472;28;20245;-81
2023/11/24 10:13:17;;;;;;;6.95;1.52;;;;;;;10.85;60.48;96610.94;4908871;28;20297;-80
2023/11/24 10:15:42;;;;;;;5.38;1.48;;;;;;;10.96;58.97;96607.28;4935262;28;20201;-81
2023/11/24 10:18:08;;;;;;;3.28;1.10;;;;;;;10.84;59.52;96598.97;4926952;28;20212;-82
2023/11/24 10:20:35;;;;;;;5.85;1.10;;;;;;;10.76;59.23;96589.84;4910043;28;20166;-81
2023/11/24 10:23:02;;;;;;;4.80;1.00;;;;;;;10.77;58.62;96590.63;4929840;28;20233;-82
2023/11/24 10:25:33;;;;;;;3.28;0.93;;;;;;;10.68;58.39;96585.94;4945435;28;20269;-81
2023/11/24 10:28:00;;;;;;;5.75;1.13;;;;;;;10.81;57.81;96592.47;4927680;28;20766;-81
2023/11/24 10:30:25;;;;;;;3.65;0.80;;;;;;;10.76;58.99;96570.81;4927651;28;20289;-81
2023/11/24 10:32:51;;;;;;;4.70;0.93;;;;;;;10.79;57.52;96567.72;4945373;28;20233;-82
2023/11/24 10:35:17;;;;;;;4.95;0.90;;;;;;;10.41;57.63;96554.16;4928572;28;20196;-81
2023/11/24 10:37:44;;;;;;;4.90;1.42;;;;;;;10.68;57.36;96557.28;4947690;28;20183;-82
2023/11/24 10:40:14;;;;;;;1.95;0.65;;;;;;;10.65;57.27;96554.44;4906129;28;20271;-82
2023/11/24 10:42:40;;;;;;;4.72;1.23;;;;;;;10.19;57.57;96560.31;4945750;28;20293;-80
2023/11/24 10:45:11;;;;;;;4.43;0.80;;;;;;;10.44;57.45;96564.03;4909757;28;20568;-82
2023/11/24 10:47:53;;;;;;;4.82;1.65;;;;;;;10.48;57.49;96565.06;4926400;28;20267;-83
2023/11/24 10:50:23;;;;;;;3.92;1.15;;;;;;;10.38;57.96;96560.63;4929004;28;20376;-83
2023/11/24 10:53:06;;;;;;;2.00;1.10;;;;;;;10.70;57.08;96551.81;4946827;28;20561;-82
2023/11/24 10:55:34;;;;;;;2.40;0.90;;;;;;;10.70;56.79;96551.06;4918481;28;20149;-81
2023/11/24 10:58:01;;;;;;;5.88;1.20;;;;;;;10.37;57.81;96553.09;4953301;28;20276;-82
2023/11/24 11:00:27;;;;;;;8.07;1.05;;;;;;;10.49;57.58;96541.41;4925739;28;20271;-81
2023/11/24 11:02:55;;;;;;;5.82;1.25;;;;;;;10.40;57.17;96542.97;4943025;28;20259;-81
2023/11/24 11:06:10;;;;;;;4.57;1.90;;;;;;;10.73;57.24;96533.09;4910417;28;20208;-82
2023/11/24 11:08:42;;;;;;;3.72;1.02;;;;;;;10.84;57.87;96534.63;4937175;28;20228;-81
2023/11/24 11:11:12;;;;;;;5.18;1.10;;;;;;;10.74;57.39;96528.66;4942354;28;20278;-81
2023/11/24 11:13:44;;;;;;;3.10;0.85;;;;;;;10.57;56.51;96528.91;4922910;28;20161;-81
2023/11/24 11:16:12;;;;;;;3.58;1.10;;;;;;;10.73;56.80;96519.25;4935469;28;20382;-82
2023/11/24 11:18:38;;;;;;;2.17;0.68;;;;;;;10.53;57.52;96510.44;4925436;28;20222;-83
2023/11/24 11:21:36;;;;;;;2.97;0.90;;;;;;;10.66;56.54;96515.13;4942085;28;20203;-81
2023/11/24 11:24:05;;;;;;;2.45;0.80;;;;;;;10.76;57.18;96505.72;4924982;28;20162;-81
2023/11/24 11:26:50;;;;;;;5.53;1.40;;;;;;;10.66;56.87;96498.72;4943734;28;20208;-82
2023/11/24 11:29:20;;;;;;;4.22;1.10;;;;;;;10.64;57.07;96509.41;4926323;28;20242;-81